Time;durP1;ratioP1;P1;durP2;ratioP2;P2;SDS_P1;SDS_P2;PMS_P1;PMS_P2;Temp;Humidity;BMP_temperature;BMP_pressure;BME280_temperature;BME280_humidity;BME280_pressure;Samples;Min_cycle;Max_cycle;Signal;HPM_P1;HPM_P2
2023/03/11 00:01:51;;;;;;;2.37;1.50;;;3.50;82.20;;;;;;5079659;28;20219;-86
2023/03/11 00:04:17;;;;;;;1.77;1.67;;;3.50;82.30;;;;;;5080034;28;20168;-83
2023/03/11 00:06:43;;;;;;;3.27;2.20;;;3.50;82.50;;;;;;5077571;28;20184;-84
2023/03/11 00:09:08;;;;;;;2.60;1.83;;;3.50;81.90;;;;;;5080221;28;20176;-86
2023/03/11 00:11:34;;;;;;;2.10;1.90;;;3.60;82.20;;;;;;5078036;28;20268;-84
2023/03/11 00:14:00;;;;;;;2.47;2.10;;;3.60;82.10;;;;;;5086127;28;20202;-86
2023/03/11 00:16:25;;;;;;;2.70;1.97;;;3.60;83.70;;;;;;5082517;28;20207;-84
2023/03/11 00:18:51;;;;;;;2.60;2.00;;;3.60;83.10;;;;;;5077981;28;20171;-86
2023/03/11 00:21:19;;;;;;;2.57;1.77;;;3.50;83.70;;;;;;5077311;28;20571;-85
2023/03/11 00:23:45;;;;;;;1.73;1.63;;;3.60;84.30;;;;;;5078821;28;20180;-85
2023/03/11 00:26:11;;;;;;;2.23;2.00;;;3.50;84.80;;;;;;5079504;28;20204;-86
2023/03/11 00:28:36;;;;;;;2.20;2.00;;;3.50;85.00;;;;;;5080211;28;20191;-84
2023/03/11 00:31:02;;;;;;;2.07;1.87;;;3.50;86.00;;;;;;5080885;28;20203;-85
2023/03/11 00:33:28;;;;;;;2.63;1.93;;;3.50;86.20;;;;;;5081285;28;20191;-85
2023/03/11 00:35:54;;;;;;;2.40;2.20;;;3.40;86.30;;;;;;5080442;28;20214;-85
2023/03/11 00:38:20;;;;;;;2.40;2.20;;;3.40;86.50;;;;;;5083841;28;20233;-85
2023/03/11 00:40:46;;;;;;;2.20;2.00;;;3.40;86.60;;;;;;5085145;28;20294;-84
2023/03/11 00:43:13;;;;;;;3.27;2.30;;;3.40;86.70;;;;;;5083817;28;20233;-85
2023/03/11 00:45:39;;;;;;;4.30;1.70;;;3.40;87.50;;;;;;5084822;28;20685;-85
2023/03/11 00:48:06;;;;;;;3.90;2.20;;;3.40;87.10;;;;;;5084308;28;20206;-84
2023/03/11 00:50:34;;;;;;;2.87;2.30;;;3.30;86.30;;;;;;5084776;28;20226;-84
2023/03/11 00:53:00;;;;;;;3.97;2.63;;;3.30;86.90;;;;;;5081854;28;20259;-86
2023/03/11 00:55:29;;;;;;;2.53;2.20;;;3.30;87.20;;;;;;5082793;28;20370;-85
2023/03/11 00:57:58;;;;;;;2.30;1.83;;;3.30;87.00;;;;;;5081640;28;20527;-85
2023/03/11 01:00:26;;;;;;;5.53;2.50;;;3.20;83.90;;;;;;5081842;28;20286;-85
2023/03/11 01:02:53;;;;;;;2.40;1.90;;;3.20;83.60;;;;;;5084247;28;20183;-85
2023/03/11 01:05:22;;;;;;;2.10;1.90;;;3.20;84.10;;;;;;5084635;28;20733;-83
2023/03/11 01:07:48;;;;;;;2.60;2.00;;;3.30;83.00;;;;;;5083689;28;20248;-85
2023/03/11 01:10:16;;;;;;;2.07;1.80;;;3.30;80.50;;;;;;5086164;28;20214;-85
2023/03/11 01:12:42;;;;;;;1.60;1.50;;;3.20;78.90;;;;;;5081364;28;20215;-85
2023/03/11 01:15:13;;;;;;;3.30;2.07;;;3.20;78.70;;;;;;5082611;28;20300;-85
2023/03/11 01:17:38;;;;;;;3.73;1.57;;;3.30;80.60;;;;;;5081222;28;20249;-85
2023/03/11 01:20:06;;;;;;;2.70;1.63;;;3.30;78.00;;;;;;5083577;28;20227;-85
2023/03/11 01:22:32;;;;;;;4.57;1.70;;;3.20;77.10;;;;;;5081748;28;20228;-85
2023/03/11 01:24:57;;;;;;;2.40;1.63;;;3.10;73.90;;;;;;5081738;28;20195;-82
2023/03/11 01:27:24;;;;;;;1.67;1.33;;;3.10;73.50;;;;;;5083549;28;20187;-84
2023/03/11 01:29:49;;;;;;;2.20;1.30;;;3.00;73.60;;;;;;5083235;28;20657;-84
2023/03/11 01:32:15;;;;;;;2.63;1.43;;;3.00;75.30;;;;;;5083980;28;20182;-86
2023/03/11 01:34:41;;;;;;;3.57;1.50;;;3.10;74.20;;;;;;5083741;28;20215;-84
2023/03/11 01:37:06;;;;;;;1.73;1.57;;;3.10;74.40;;;;;;5085458;28;20175;-82
2023/03/11 01:39:32;;;;;;;2.73;1.60;;;3.00;73.60;;;;;;5089708;28;20179;-84
2023/03/11 01:41:58;;;;;;;2.73;1.73;;;3.00;74.20;;;;;;5094142;28;20176;-85
2023/03/11 01:44:23;;;;;;;3.00;1.33;;;3.00;75.40;;;;;;5085847;28;20573;-85
2023/03/11 01:46:52;;;;;;;1.77;1.40;;;2.80;74.70;;;;;;5086658;28;20184;-85
2023/03/11 01:49:20;;;;;;;2.40;1.60;;;2.80;75.00;;;;;;5083896;28;20197;-85
2023/03/11 01:51:50;;;;;;;1.97;1.47;;;2.80;73.60;;;;;;5068661;28;20427;-85
2023/03/11 01:54:22;;;;;;;1.87;1.20;;;2.80;72.00;;;;;;5083670;28;20171;-85
2023/03/11 01:56:49;;;;;;;2.23;1.50;;;2.80;70.90;;;;;;5084087;28;20179;-85
2023/03/11 01:59:20;;;;;;;1.30;1.20;;;2.80;70.60;;;;;;5107121;28;20175;-85
2023/03/11 02:02:04;;;;;;;3.40;1.77;;;2.80;71.10;;;;;;5110057;28;20211;-87
2023/03/11 02:04:33;;;;;;;2.27;1.77;;;2.80;71.60;;;;;;5102641;28;20236;-85
2023/03/11 02:07:00;;;;;;;1.50;1.40;;;2.80;73.30;;;;;;5100366;28;20545;-85
2023/03/11 02:09:25;;;;;;;1.63;1.50;;;2.80;73.20;;;;;;5084039;28;20237;-85
2023/03/11 02:11:52;;;;;;;3.20;1.80;;;2.70;71.70;;;;;;5083480;28;20215;-85
2023/03/11 02:14:19;;;;;;;3.27;1.33;;;2.70;73.60;;;;;;5083869;28;20208;-83
2023/03/11 02:16:44;;;;;;;2.00;1.53;;;2.70;73.90;;;;;;5084479;28;20333;-84
2023/03/11 02:19:48;;;;;;;3.27;1.57;;;2.70;73.50;;;;;;5082888;28;20195;-84
2023/03/11 02:22:15;;;;;;;4.20;1.60;;;2.70;73.40;;;;;;5084221;28;20172;-85
2023/03/11 02:25:02;;;;;;;1.70;1.40;;;2.70;74.30;;;;;;5064004;28;20183;-85
2023/03/11 02:27:31;;;;;;;3.07;1.53;;;2.60;74.00;;;;;;5083996;28;20175;-86
2023/03/11 02:29:59;;;;;;;3.70;1.97;;;2.50;74.50;;;;;;5083337;28;20230;-85
2023/03/11 02:32:25;;;;;;;2.13;1.60;;;2.50;74.30;;;;;;5084950;28;20199;-83
2023/03/11 02:34:51;;;;;;;2.03;1.63;;;2.50;75.70;;;;;;5083939;28;20226;-86
2023/03/11 02:37:17;;;;;;;2.17;1.43;;;2.60;75.80;;;;;;5088457;28;20243;-86
2023/03/11 02:39:45;;;;;;;1.60;1.33;;;2.60;75.50;;;;;;5104535;28;20182;-84
2023/03/11 02:42:18;;;;;;;2.87;1.70;;;2.60;79.30;;;;;;5102965;28;20179;-84
2023/03/11 02:44:48;;;;;;;2.80;1.80;;;2.60;77.50;;;;;;5101503;28;20167;-84
2023/03/11 02:47:14;;;;;;;3.77;1.80;;;2.70;76.80;;;;;;5102849;28;20235;-84
2023/03/11 02:49:40;;;;;;;3.80;1.80;;;2.70;76.10;;;;;;5108832;28;20163;-83
2023/03/11 02:52:06;;;;;;;2.27;1.50;;;2.70;77.00;;;;;;5117180;28;20181;-84
2023/03/11 02:54:32;;;;;;;3.57;2.00;;;2.60;77.10;;;;;;5117201;28;20240;-80
2023/03/11 02:56:58;;;;;;;3.37;1.93;;;2.50;78.80;;;;;;5090777;28;20194;-84
2023/03/11 02:59:23;;;;;;;2.33;1.63;;;2.40;79.80;;;;;;5084865;28;20182;-85
2023/03/11 03:01:49;;;;;;;3.53;1.73;;;2.20;81.10;;;;;;5071671;28;20223;-84
2023/03/11 03:04:15;;;;;;;2.70;2.03;;;2.00;83.00;;;;;;5105130;28;20197;-84
2023/03/11 03:06:40;;;;;;;4.53;1.83;;;2.00;83.20;;;;;;5104908;28;20573;-83
2023/03/11 03:09:06;;;;;;;2.77;2.10;;;2.00;84.90;;;;;;5108361;28;20201;-82
2023/03/11 03:11:32;;;;;;;3.27;2.10;;;2.00;84.90;;;;;;5101494;28;20588;-85
2023/03/11 03:13:57;;;;;;;3.87;2.00;;;2.00;84.30;;;;;;5100122;28;20186;-86
2023/03/11 03:16:23;;;;;;;4.33;1.90;;;2.00;85.60;;;;;;5086129;28;20211;-82
2023/03/11 03:18:49;;;;;;;1.80;1.57;;;1.90;86.20;;;;;;5080424;28;20573;-83
2023/03/11 03:21:14;;;;;;;3.57;2.00;;;2.00;85.70;;;;;;5086503;28;20195;-84
2023/03/11 03:23:40;;;;;;;3.53;2.13;;;2.00;85.90;;;;;;5085421;28;20180;-87
2023/03/11 03:26:06;;;;;;;2.40;1.80;;;2.00;85.70;;;;;;5095130;28;20183;-83
2023/03/11 03:28:32;;;;;;;3.90;2.07;;;2.10;84.40;;;;;;5075803;28;20255;-84
2023/03/11 03:31:05;;;;;;;5.37;2.07;;;2.10;84.60;;;;;;5083425;28;20276;-83
2023/03/11 03:33:31;;;;;;;1.87;1.77;;;2.10;85.00;;;;;;5065374;28;20188;-84
2023/03/11 03:35:56;;;;;;;2.57;2.10;;;2.20;84.80;;;;;;5091675;28;20266;-84
2023/03/11 03:38:22;;;;;;;3.93;1.73;;;2.10;85.60;;;;;;5102375;28;20186;-84
2023/03/11 03:40:48;;;;;;;4.07;2.40;;;2.10;85.70;;;;;;5101153;28;20218;-84
2023/03/11 03:43:13;;;;;;;2.97;2.03;;;2.10;87.50;;;;;;5098752;28;20171;-84
2023/03/11 03:45:39;;;;;;;2.90;1.87;;;2.10;87.00;;;;;;5092676;28;20176;-85
2023/03/11 03:48:06;;;;;;;3.50;2.10;;;2.20;85.60;;;;;;5080805;28;20628;-84
2023/03/11 03:50:31;;;;;;;3.70;2.10;;;2.10;85.20;;;;;;5080597;28;20736;-84
2023/03/11 03:52:57;;;;;;;1.80;1.70;;;2.10;84.30;;;;;;5080356;28;20171;-84
2023/03/11 03:55:22;;;;;;;2.20;2.00;;;2.00;85.70;;;;;;5084677;28;20238;-86
2023/03/11 03:57:48;;;;;;;2.57;2.03;;;2.00;85.90;;;;;;5101756;28;20179;-85
2023/03/11 04:00:14;;;;;;;3.63;2.20;;;2.00;84.60;;;;;;5100515;28;20646;-83
2023/03/11 04:02:41;;;;;;;4.07;2.10;;;2.00;87.20;;;;;;5084513;28;20187;-85
2023/03/11 04:05:07;;;;;;;2.30;2.10;;;2.00;85.40;;;;;;5087531;28;20275;-84
2023/03/11 04:07:34;;;;;;;2.10;1.90;;;2.00;86.80;;;;;;5060729;28;20657;-85
2023/03/11 04:10:00;;;;;;;2.23;1.83;;;2.00;84.80;;;;;;5079272;28;20225;-85
2023/03/11 04:12:26;;;;;;;2.80;1.80;;;1.90;87.40;;;;;;5083890;28;20208;-84
2023/03/11 04:14:52;;;;;;;3.90;1.90;;;2.00;85.90;;;;;;5096411;28;20230;-84
2023/03/11 04:17:17;;;;;;;2.23;1.60;;;2.00;87.00;;;;;;5084744;28;20175;-85
2023/03/11 04:19:43;;;;;;;2.73;2.10;;;1.90;84.50;;;;;;5085341;28;20400;-84
2023/03/11 04:22:09;;;;;;;3.00;2.20;;;2.00;87.10;;;;;;5067237;28;20182;-84
2023/03/11 04:24:35;;;;;;;4.30;1.90;;;2.00;85.40;;;;;;5106857;28;20186;-84
2023/03/11 04:27:00;;;;;;;3.53;1.83;;;2.00;86.50;;;;;;5086958;28;20182;-84
2023/03/11 04:29:26;;;;;;;2.10;1.70;;;2.10;88.50;;;;;;5085706;28;20179;-83
2023/03/11 04:31:52;;;;;;;3.07;1.77;;;2.30;87.10;;;;;;5084021;28;20221;-83
2023/03/11 04:34:17;;;;;;;3.30;1.77;;;2.40;85.80;;;;;;5099690;28;20182;-85
2023/03/11 04:36:43;;;;;;;2.53;2.10;;;2.30;84.90;;;;;;5103585;28;20185;-84
2023/03/11 04:39:09;;;;;;;3.73;1.97;;;2.30;87.30;;;;;;5102773;28;20668;-83
2023/03/11 04:41:35;;;;;;;5.10;2.30;;;2.20;86.10;;;;;;5103255;28;20337;-83
2023/03/11 04:44:01;;;;;;;3.77;1.60;;;2.30;84.40;;;;;;5089109;28;20191;-85
2023/03/11 04:46:27;;;;;;;2.17;1.90;;;2.30;84.70;;;;;;5100341;28;20187;-83
2023/03/11 04:48:52;;;;;;;2.57;1.90;;;2.20;82.10;;;;;;5103240;28;20711;-84
2023/03/11 04:51:18;;;;;;;2.77;2.20;;;2.00;81.50;;;;;;5103615;28;20218;-83
2023/03/11 04:53:44;;;;;;;4.70;2.20;;;1.90;83.60;;;;;;5104279;28;20779;-86
2023/03/11 04:56:09;;;;;;;2.97;2.00;;;1.80;83.10;;;;;;5104266;28;20199;-83
2023/03/11 04:58:35;;;;;;;3.43;2.13;;;1.80;84.60;;;;;;5102595;28;20175;-84
2023/03/11 05:01:00;;;;;;;3.10;1.97;;;1.80;82.90;;;;;;5102091;28;20221;-83
2023/03/11 05:03:26;;;;;;;3.27;2.00;;;1.80;87.20;;;;;;5102339;28;20194;-84
2023/03/11 05:05:55;;;;;;;5.10;2.00;;;2.00;85.20;;;;;;5102709;28;20187;-83
2023/03/11 05:08:22;;;;;;;2.23;1.90;;;2.10;83.70;;;;;;5102165;28;20255;-83
2023/03/11 05:10:47;;;;;;;2.43;1.80;;;2.10;85.70;;;;;;5091209;28;20229;-83
2023/03/11 05:13:13;;;;;;;2.03;1.83;;;2.20;85.00;;;;;;5088393;28;20196;-84
2023/03/11 05:15:39;;;;;;;3.50;2.20;;;2.20;85.30;;;;;;5084055;28;20270;-83
2023/03/11 05:18:05;;;;;;;1.70;1.60;;;2.30;87.50;;;;;;5083261;28;20183;-84
2023/03/11 05:20:31;;;;;;;3.43;2.23;;;2.40;86.60;;;;;;5085166;28;20201;-84
2023/03/11 05:22:56;;;;;;;3.43;2.00;;;2.50;86.90;;;;;;5081867;28;20168;-84
2023/03/11 05:25:24;;;;;;;2.93;2.03;;;2.50;87.20;;;;;;5082315;28;20175;-83
2023/03/11 05:27:49;;;;;;;3.87;1.80;;;2.50;87.10;;;;;;5084639;28;20180;-84
2023/03/11 05:30:15;;;;;;;5.50;1.90;;;2.50;86.00;;;;;;5084152;28;20204;-85
2023/03/11 05:32:41;;;;;;;4.57;2.07;;;2.60;86.80;;;;;;5084211;28;20202;-85
2023/03/11 05:35:07;;;;;;;2.33;1.67;;;2.70;86.90;;;;;;5081624;28;20587;-83
2023/03/11 05:37:34;;;;;;;3.07;1.80;;;2.60;86.40;;;;;;5082006;28;20203;-84
2023/03/11 05:40:00;;;;;;;3.37;2.07;;;2.50;87.60;;;;;;5063423;28;20685;-83
2023/03/11 05:42:25;;;;;;;5.80;2.30;;;2.40;81.30;;;;;;5066434;28;20194;-83
2023/03/11 05:44:51;;;;;;;2.97;1.87;;;2.20;81.70;;;;;;5081012;28;20171;-85
2023/03/11 05:47:17;;;;;;;3.03;1.90;;;2.00;83.90;;;;;;5080745;28;20812;-84
2023/03/11 05:49:43;;;;;;;2.70;1.87;;;2.00;87.60;;;;;;5082129;28;20257;-84
2023/03/11 05:52:08;;;;;;;4.47;2.00;;;2.00;85.00;;;;;;5099360;28;20191;-83
2023/03/11 05:54:34;;;;;;;3.63;2.10;;;1.80;85.60;;;;;;5100432;28;20203;-83
2023/03/11 05:57:00;;;;;;;4.73;2.20;;;1.80;88.10;;;;;;5101693;28;20258;-84
2023/03/11 05:59:25;;;;;;;3.93;2.00;;;1.80;87.30;;;;;;5102065;28;20171;-84
2023/03/11 06:01:52;;;;;;;5.10;3.20;;;1.90;88.80;;;;;;5100969;28;20256;-83
2023/03/11 06:04:18;;;;;;;3.33;2.60;;;1.90;86.70;;;;;;5101162;28;20240;-84
2023/03/11 06:06:43;;;;;;;3.90;2.77;;;1.90;88.80;;;;;;5080065;28;20191;-83
2023/03/11 06:09:13;;;;;;;3.37;2.60;;;1.80;88.00;;;;;;5079645;28;20213;-84
2023/03/11 06:11:39;;;;;;;3.77;3.27;;;1.80;84.80;;;;;;5075659;28;20227;-84
2023/03/11 06:14:04;;;;;;;4.03;3.30;;;1.50;86.20;;;;;;5080238;28;20230;-83
2023/03/11 06:16:30;;;;;;;4.00;3.07;;;1.40;88.10;;;;;;5081447;28;20196;-84
2023/03/11 06:18:56;;;;;;;4.17;2.50;;;1.20;90.60;;;;;;5080438;28;20183;-84
2023/03/11 06:21:23;;;;;;;4.63;2.87;;;1.20;91.60;;;;;;5082431;28;20569;-84
2023/03/11 06:23:52;;;;;;;3.47;2.27;;;1.40;92.70;;;;;;5061157;28;20693;-83
2023/03/11 06:26:20;;;;;;;3.03;2.50;;;1.40;92.10;;;;;;5062010;28;20272;-83
2023/03/11 06:28:46;;;;;;;4.37;2.27;;;1.50;91.40;;;;;;5082703;28;20752;-84
2023/03/11 06:31:24;;;;;;;3.30;2.70;;;1.40;91.40;;;;;;5081444;28;20223;-84
2023/03/11 06:33:50;;;;;;;4.97;2.70;;;1.40;92.10;;;;;;5079040;28;20170;-84
2023/03/11 06:36:19;;;;;;;4.03;3.00;;;1.20;93.90;;;;;;5079333;28;20202;-84
2023/03/11 06:38:48;;;;;;;5.23;4.03;;;1.10;93.50;;;;;;5081552;28;20206;-83
2023/03/11 06:41:13;;;;;;;6.70;4.03;;;1.00;95.30;;;;;;5077718;28;20195;-84
2023/03/11 06:43:39;;;;;;;7.10;3.70;;;0.90;95.70;;;;;;5081103;28;20174;-83
2023/03/11 06:46:15;;;;;;;5.27;3.60;;;0.90;96.50;;;;;;5080315;28;20190;-84
2023/03/11 06:48:40;;;;;;;4.27;3.10;;;0.90;97.10;;;;;;5083135;28;20180;-84
2023/03/11 06:51:06;;;;;;;4.87;2.93;;;0.90;97.50;;;;;;5078671;28;20201;-83
2023/03/11 06:53:32;;;;;;;3.33;2.77;;;0.80;97.40;;;;;;5079903;28;20202;-83
2023/03/11 06:55:59;;;;;;;3.63;2.43;;;0.80;97.90;;;;;;5081814;28;20710;-84
2023/03/11 06:58:25;;;;;;;6.83;2.80;;;0.80;97.90;;;;;;5081137;28;20243;-84
2023/03/11 07:00:51;;;;;;;7.97;2.97;;;0.80;98.60;;;;;;5077113;28;20213;-84
2023/03/11 07:03:17;;;;;;;3.47;2.77;;;0.90;97.40;;;;;;5080834;28;20262;-83
2023/03/11 07:05:43;;;;;;;3.30;2.53;;;1.00;97.20;;;;;;5079015;28;20191;-83
2023/03/11 07:08:08;;;;;;;3.50;3.07;;;0.90;97.40;;;;;;5079212;28;20188;-84
2023/03/11 07:10:34;;;;;;;4.60;2.67;;;0.90;97.60;;;;;;5079068;28;20228;-83
2023/03/11 07:13:00;;;;;;;3.97;2.50;;;1.00;98.10;;;;;;5079607;28;20186;-81
2023/03/11 07:15:25;;;;;;;4.67;2.80;;;1.00;97.70;;;;;;5091696;28;20207;-84
2023/03/11 07:17:51;;;;;;;5.30;2.80;;;1.00;97.30;;;;;;5109544;28;20174;-84
2023/03/11 07:20:18;;;;;;;4.50;2.43;;;1.10;97.50;;;;;;5092997;28;20207;-83
2023/03/11 07:22:44;;;;;;;7.70;2.87;;;1.10;97.30;;;;;;5096987;28;20163;-84
2023/03/11 07:25:09;;;;;;;6.27;2.93;;;1.20;97.10;;;;;;5083351;28;20237;-82
2023/03/11 07:27:35;;;;;;;6.80;3.63;;;1.20;96.40;;;;;;5070791;28;20688;-83
2023/03/11 07:30:02;;;;;;;5.93;3.30;;;1.30;96.00;;;;;;5077605;28;20861;-82
2023/03/11 07:32:28;;;;;;;5.30;3.37;;;1.30;94.20;;;;;;5077709;28;20194;-84
2023/03/11 07:34:54;;;;;;;7.37;2.97;;;1.30;93.60;;;;;;5068537;28;20390;-83
2023/03/11 07:37:19;;;;;;;5.33;3.10;;;1.30;94.00;;;;;;5078311;28;20214;-84
2023/03/11 07:39:45;;;;;;;4.60;2.90;;;1.40;90.10;;;;;;5076501;28;20184;-84
2023/03/11 07:42:10;;;;;;;3.90;2.63;;;1.50;90.10;;;;;;5077683;28;20182;-83
2023/03/11 07:44:37;;;;;;;5.03;3.10;;;1.50;90.20;;;;;;5080521;28;20178;-84
2023/03/11 07:47:06;;;;;;;5.30;3.27;;;1.60;91.90;;;;;;5076545;28;20206;-84
2023/03/11 07:49:31;;;;;;;4.57;2.70;;;1.60;92.10;;;;;;5077052;28;20206;-83
2023/03/11 07:51:57;;;;;;;4.50;2.60;;;1.60;88.20;;;;;;5077099;28;20187;-84
2023/03/11 07:54:23;;;;;;;2.60;2.30;;;1.70;87.70;;;;;;5078844;28;20197;-85
2023/03/11 07:56:49;;;;;;;4.83;2.50;;;1.70;87.30;;;;;;5075381;28;21111;-80
2023/03/11 07:59:14;;;;;;;5.13;1.80;;;1.80;87.90;;;;;;5073124;28;20183;-84
2023/03/11 08:01:45;;;;;;;4.03;2.50;;;2.10;77.70;;;;;;5077470;28;20514;-83
2023/03/11 08:04:12;;;;;;;4.53;2.03;;;2.10;79.00;;;;;;5078424;28;20261;-83
2023/03/11 08:06:40;;;;;;;6.17;2.67;;;2.20;79.40;;;;;;5078377;28;20195;-83
2023/03/11 08:09:08;;;;;;;7.53;2.40;;;2.20;79.60;;;;;;5098548;28;20677;-83
2023/03/11 08:11:34;;;;;;;7.60;2.63;;;2.20;79.50;;;;;;5079272;28;20249;-84
2023/03/11 08:14:00;;;;;;;4.63;2.80;;;2.30;76.70;;;;;;5078801;28;20557;-82
2023/03/11 08:16:26;;;;;;;3.57;2.03;;;2.40;78.00;;;;;;5066694;28;20199;-84
2023/03/11 08:18:53;;;;;;;5.87;2.77;;;2.40;76.80;;;;;;5080971;28;20186;-85
2023/03/11 08:21:24;;;;;;;2.70;2.00;;;2.50;77.40;;;;;;5079376;28;20199;-84
2023/03/11 08:23:50;;;;;;;4.97;2.50;;;2.70;74.60;;;;;;5080971;28;20182;-84
2023/03/11 08:26:19;;;;;;;6.17;2.40;;;2.80;74.30;;;;;;5081706;28;20178;-83
2023/03/11 08:28:45;;;;;;;5.60;2.13;;;2.60;75.90;;;;;;5076360;28;20192;-80
2023/03/11 08:31:29;;;;;;;4.60;2.27;;;2.80;76.30;;;;;;5077589;28;20211;-86
2023/03/11 08:34:01;;;;;;;3.80;2.20;;;2.70;76.40;;;;;;5079812;28;20249;-83
2023/03/11 08:36:27;;;;;;;3.70;2.43;;;2.70;76.70;;;;;;5077861;28;20192;-83
2023/03/11 08:38:53;;;;;;;3.10;2.20;;;2.90;72.30;;;;;;5078908;28;20237;-83
2023/03/11 08:41:19;;;;;;;4.57;2.10;;;2.60;75.30;;;;;;5081110;28;20203;-79
2023/03/11 08:43:45;;;;;;;4.77;2.20;;;2.60;74.70;;;;;;5079010;28;20179;-81
2023/03/11 08:46:24;;;;;;;4.00;2.40;;;2.70;76.40;;;;;;5080499;28;20278;-81
2023/03/11 08:48:50;;;;;;;5.87;2.10;;;2.80;76.30;;;;;;5080043;28;20191;-87
2023/03/11 08:51:17;;;;;;;3.93;2.37;;;3.20;72.40;;;;;;5066050;28;20203;-81
2023/03/11 08:53:43;;;;;;;3.23;2.20;;;3.40;71.30;;;;;;5081434;28;20187;-81
2023/03/11 08:56:08;;;;;;;3.00;2.20;;;3.40;71.90;;;;;;5086958;28;20215;-83
2023/03/11 08:58:34;;;;;;;5.23;2.10;;;3.70;70.50;;;;;;5083066;28;20221;-88
2023/03/11 09:01:00;;;;;;;2.93;2.17;;;3.60;67.10;;;;;;5079213;28;20648;-80
2023/03/11 09:03:26;;;;;;;5.83;2.60;;;3.50;70.10;;;;;;5077550;28;20176;-77
2023/03/11 09:06:00;;;;;;;4.97;2.40;;;3.60;69.70;;;;;;5081199;28;20195;-78
2023/03/11 09:08:26;;;;;;;7.83;2.90;;;3.70;68.40;;;;;;5080362;28;20170;-80
2023/03/11 09:10:52;;;;;;;6.17;2.53;;;3.60;70.10;;;;;;5081319;28;20223;-84
2023/03/11 09:13:18;;;;;;;6.17;2.67;;;3.90;67.70;;;;;;5082327;28;20289;-86
2023/03/11 09:15:44;;;;;;;7.30;2.53;;;4.10;66.60;;;;;;5081301;28;20199;-80
2023/03/11 09:18:12;;;;;;;6.57;2.63;;;4.10;66.10;;;;;;5081860;28;20184;-83
2023/03/11 09:20:38;;;;;;;9.67;2.60;;;3.80;67.80;;;;;;5082184;28;20191;-82
2023/03/11 09:23:07;;;;;;;3.50;2.20;;;3.80;67.10;;;;;;5083135;28;20190;-87
2023/03/11 09:25:32;;;;;;;5.87;2.13;;;4.20;68.20;;;;;;5085184;28;20183;-80
2023/03/11 09:27:58;;;;;;;4.03;2.17;;;4.60;62.20;;;;;;5087846;28;20245;-88
2023/03/11 09:30:23;;;;;;;2.77;2.10;;;4.80;62.10;;;;;;5082981;28;20692;-82
2023/03/11 09:32:49;;;;;;;4.47;2.60;;;4.80;62.10;;;;;;5080500;28;20183;-85
2023/03/11 09:35:15;;;;;;;3.67;2.30;;;4.90;63.10;;;;;;5098989;28;20191;-83
2023/03/11 09:37:40;;;;;;;4.60;2.67;;;5.30;62.10;;;;;;5095709;28;20245;-83
2023/03/11 09:40:07;;;;;;;4.40;2.30;;;5.60;59.50;;;;;;5083432;28;20199;-84
2023/03/11 09:43:00;;;;;;;4.17;2.40;;;5.70;57.10;;;;;;5083186;28;20215;-82
2023/03/11 09:45:33;;;;;;;5.50;2.57;;;5.80;57.30;;;;;;5101235;28;20211;-86
2023/03/11 09:48:17;;;;;;;5.70;2.47;;;6.30;55.90;;;;;;5095898;28;20207;-89
2023/03/11 09:50:54;;;;;;;6.03;2.40;;;6.40;53.50;;;;;;5080840;28;20198;-84
2023/03/11 09:53:44;;;;;;;4.03;2.17;;;6.30;53.30;;;;;;5080259;28;20184;-81
2023/03/11 09:56:13;;;;;;;3.37;1.57;;;6.60;50.10;;;;;;5075041;28;20215;-81
2023/03/11 09:58:46;;;;;;;4.17;1.90;;;6.80;49.70;;;;;;5065439;28;20184;-81
2023/03/11 10:01:25;;;;;;;4.20;1.63;;;7.20;48.60;;;;;;5080055;28;20609;-82
2023/03/11 10:03:54;;;;;;;9.23;2.37;;;7.80;45.90;;;;;;5083215;28;20235;-79
2023/03/11 10:06:21;;;;;;;4.67;2.70;;;8.30;44.50;;;;;;5102106;28;20250;-79
2023/03/11 10:09:22;;;;;;;14.87;3.93;;;7.90;49.20;;;;;;5082170;28;20600;-78
2023/03/11 10:12:06;;;;;;;9.50;3.17;;;7.90;48.60;;;;;;5079713;28;20725;-81
2023/03/11 10:14:53;;;;;;;6.23;2.83;;;8.20;49.30;;;;;;5078764;28;20195;-82
2023/03/11 10:17:24;;;;;;;11.67;3.33;;;8.60;48.10;;;;;;5078778;28;20180;-80
2023/03/11 10:20:07;;;;;;;5.43;2.50;;;8.40;45.90;;;;;;5090020;28;20174;-80
2023/03/11 10:22:39;;;;;;;5.27;2.27;;;7.90;47.40;;;;;;5081568;28;20186;-82
2023/03/11 10:25:15;;;;;;;4.97;2.40;;;7.90;50.40;;;;;;5082602;28;20184;-81
2023/03/11 10:27:46;;;;;;;3.77;2.20;;;7.30;48.90;;;;;;5080918;28;20195;-80
2023/03/11 10:30:39;;;;;;;4.83;2.33;;;7.10;50.30;;;;;;5091949;28;20214;-82
2023/03/11 10:33:26;;;;;;;5.50;2.10;;;7.10;46.40;;;;;;5099674;28;20209;-80
2023/03/11 10:35:55;;;;;;;3.43;2.33;;;6.90;50.20;;;;;;5089833;28;20202;-81
2023/03/11 10:38:31;;;;;;;4.63;3.40;;;6.60;50.30;;;;;;5041145;28;20212;-80
2023/03/11 10:41:03;;;;;;;6.37;2.57;;;6.40;50.70;;;;;;5092205;28;20322;-78
2023/03/11 10:44:04;;;;;;;4.77;2.97;;;6.40;51.70;;;;;;5083435;28;20225;-82
2023/03/11 10:46:30;;;;;;;5.70;3.10;;;6.60;52.70;;;;;;5081564;28;20272;-80
2023/03/11 10:48:56;;;;;;;6.73;3.70;;;6.50;50.90;;;;;;5087613;28;20211;-80
2023/03/11 10:51:34;;;;;;;3.90;1.83;;;6.50;49.50;;;;;;5076437;28;20206;-80
2023/03/11 10:54:01;;;;;;;5.13;1.80;;;6.40;47.90;;;;;;5078604;28;20183;-80
2023/03/11 10:56:52;;;;;;;2.67;2.10;;;6.30;47.40;;;;;;5077587;28;20211;-79
2023/03/11 10:59:33;;;;;;;7.77;5.20;;;6.40;47.50;;;;;;5079361;28;20198;-80
2023/03/11 11:02:56;;;;;;;6.77;2.17;;;6.30;49.00;;;;;;5081800;28;20206;-82
2023/03/11 11:05:31;;;;;;;4.63;1.90;;;6.30;50.20;;;;;;4998342;28;20305;-81
2023/03/11 11:08:11;;;;;;;6.83;2.23;;;6.10;49.50;;;;;;5075926;28;20190;-80
2023/03/11 11:10:47;;;;;;;5.73;3.00;;;5.90;48.90;;;;;;5074059;28;20226;-80
2023/03/11 11:13:12;;;;;;;3.73;2.60;;;5.90;52.40;;;;;;5080177;28;20176;-82
2023/03/11 11:16:02;;;;;;;4.17;2.17;;;6.30;51.40;;;;;;5081003;28;20207;-83
2023/03/11 11:18:45;;;;;;;5.23;2.07;;;6.50;49.70;;;;;;5081853;28;20179;-81
2023/03/11 11:21:29;;;;;;;6.10;2.40;;;6.90;49.70;;;;;;5080508;28;20212;-83
2023/03/11 11:24:23;;;;;;;27.70;25.50;;;7.10;47.20;;;;;;5085920;28;20198;-80
2023/03/11 11:27:10;;;;;;;3.93;2.80;;;7.30;48.50;;;;;;5075806;28;20191;-84
2023/03/11 11:29:36;;;;;;;4.03;2.37;;;7.30;47.90;;;;;;5095967;28;20194;-81
2023/03/11 11:32:25;;;;;;;5.07;2.10;;;7.50;45.40;;;;;;5096027;28;20198;-80
2023/03/11 11:35:00;;;;;;;3.27;2.07;;;7.30;45.60;;;;;;5095532;28;20781;-82
2023/03/11 11:37:30;;;;;;;5.70;2.10;;;7.10;45.30;;;;;;5087385;28;20175;-81
2023/03/11 11:40:09;;;;;;;5.10;1.97;;;7.40;44.00;;;;;;5078082;28;20179;-81
2023/03/11 11:42:37;;;;;;;5.27;2.50;;;7.30;43.50;;;;;;5075700;28;20156;-82
2023/03/11 11:45:18;;;;;;;7.20;2.90;;;7.10;46.00;;;;;;5074306;28;20192;-83
2023/03/11 11:47:49;;;;;;;3.97;2.40;;;7.40;44.50;;;;;;5077605;28;20178;-83
2023/03/11 11:50:50;;;;;;;3.77;2.07;;;7.40;44.60;;;;;;5084578;28;20263;-80
2023/03/11 11:53:37;;;;;;;2.63;2.10;;;7.60;42.90;;;;;;5071709;28;20188;-78
2023/03/11 11:56:03;;;;;;;3.10;1.90;;;8.20;42.10;;;;;;5090570;28;20191;-82
2023/03/11 11:58:30;;;;;;;3.80;2.00;;;8.60;40.70;;;;;;5080829;28;20745;-81
2023/03/11 12:01:14;;;;;;;2.60;2.00;;;9.40;38.10;;;;;;5079064;28;20199;-83
2023/03/11 12:04:04;;;;;;;5.10;2.13;;;9.70;36.20;;;;;;5079836;28;20183;-81
2023/03/11 12:06:41;;;;;;;5.33;2.33;;;9.00;38.00;;;;;;5078352;28;20537;-82
2023/03/11 12:09:16;;;;;;;4.97;2.03;;;8.60;38.10;;;;;;5079219;28;20163;-82
2023/03/11 12:11:55;;;;;;;2.97;1.70;;;8.60;39.20;;;;;;5080614;28;20262;-84
2023/03/11 12:14:41;;;;;;;3.67;2.30;;;9.10;37.60;;;;;;5089716;28;20224;-79
2023/03/11 12:17:09;;;;;;;6.77;2.17;;;9.10;36.60;;;;;;5090007;28;20171;-79
2023/03/11 12:19:56;;;;;;;3.53;2.33;;;9.90;35.70;;;;;;5076367;28;20187;-83
2023/03/11 12:22:49;;;;;;;2.93;2.00;;;10.40;33.80;;;;;;5082815;28;20197;-83
2023/03/11 12:25:41;;;;;;;2.73;2.23;;;10.80;32.10;;;;;;5094802;28;20228;-85
2023/03/11 12:28:18;;;;;;;6.10;2.30;;;10.70;33.10;;;;;;5041227;28;20192;-82
2023/03/11 12:30:49;;;;;;;4.57;2.50;;;10.00;34.80;;;;;;5077002;28;20207;-82
2023/03/11 12:33:28;;;;;;;4.27;2.17;;;10.20;34.50;;;;;;5080854;28;20206;-82
2023/03/11 12:35:56;;;;;;;2.53;2.00;;;10.90;33.60;;;;;;5094415;28;20253;-80
2023/03/11 12:38:45;;;;;;;3.47;2.00;;;11.10;32.70;;;;;;5088328;28;20166;-84
2023/03/11 12:41:13;;;;;;;2.87;2.10;;;10.50;31.70;;;;;;5078994;28;20204;-81
2023/03/11 12:43:42;;;;;;;3.30;1.90;;;10.60;34.00;;;;;;5076654;28;20209;-82
2023/03/11 12:46:18;;;;;;;2.47;2.27;;;11.40;32.60;;;;;;5092856;28;20343;-79
2023/03/11 12:48:48;;;;;;;2.97;2.07;;;11.90;30.40;;;;;;5102103;28;20233;-82
2023/03/11 12:51:26;;;;;;;3.10;2.40;;;11.20;31.10;;;;;;5093003;28;20220;-86
2023/03/11 12:53:53;;;;;;;3.10;2.27;;;11.70;30.90;;;;;;5077582;28;20216;-77
2023/03/11 12:56:24;;;;;;;3.63;2.40;;;11.90;29.50;;;;;;5078599;28;20259;-78
2023/03/11 12:58:55;;;;;;;3.00;2.13;;;12.10;29.70;;;;;;5080535;28;20161;-75
2023/03/11 13:01:45;;;;;;;3.53;2.20;;;11.40;30.80;;;;;;5087753;28;20198;-77
2023/03/11 13:04:36;;;;;;;2.83;2.10;;;10.40;30.90;;;;;;5102072;28;20158;-82
2023/03/11 13:07:11;;;;;;;2.63;2.10;;;11.10;31.50;;;;;;5103340;28;20223;-83
2023/03/11 13:09:37;;;;;;;3.13;2.13;;;11.40;32.60;;;;;;5103063;28;20166;-82